createdAt,value
2018-06-10T00:01:26.490Z,21.47
2018-06-10T00:03:54.825Z,21.50
2018-06-10T00:06:23.226Z,21.45
2018-06-10T00:08:51.631Z,21.43
2018-06-10T00:11:20.144Z,21.47
2018-06-10T00:13:48.532Z,21.52
2018-06-10T00:16:16.929Z,21.51
2018-06-10T00:18:45.441Z,21.56
2018-06-10T00:21:13.856Z,21.57
2018-06-10T00:23:42.227Z,21.57
2018-06-10T00:26:10.622Z,21.56
2018-06-10T00:28:44.314Z,21.58
2018-06-10T00:31:12.695Z,21.61
2018-06-10T00:33:41.045Z,21.60
2018-06-10T00:36:09.418Z,21.55
2018-06-10T00:38:37.839Z,21.50
2018-06-10T00:41:06.218Z,21.44
2018-06-10T00:43:34.582Z,21.37
2018-06-10T00:46:02.988Z,21.41
2018-06-10T00:48:31.335Z,21.47
2018-06-10T00:50:59.743Z,21.62
2018-06-10T00:53:28.147Z,21.62
2018-06-10T00:55:56.528Z,21.61
2018-06-10T00:58:24.907Z,21.61
2018-06-10T01:00:53.356Z,21.61
2018-06-10T01:03:21.731Z,21.64
2018-06-10T01:05:50.160Z,21.70
2018-06-10T01:08:18.611Z,21.72
2018-06-10T01:10:46.945Z,21.74
2018-06-10T01:13:15.389Z,21.63
2018-06-10T01:15:43.781Z,21.59
2018-06-10T01:18:12.211Z,21.61
2018-06-10T01:20:40.630Z,21.58
2018-06-10T01:23:09.039Z,21.54
2018-06-10T01:25:37.392Z,21.52
2018-06-10T01:28:05.921Z,21.55
2018-06-10T01:30:34.268Z,21.59
2018-06-10T01:33:02.636Z,21.58
2018-06-10T01:35:30.976Z,21.65
2018-06-10T01:37:59.356Z,21.69
2018-06-10T01:40:27.683Z,21.72
2018-06-10T01:42:56.038Z,21.72
2018-06-10T01:45:24.402Z,21.72
2018-06-10T01:47:52.812Z,21.74
2018-06-10T01:50:21.231Z,21.73
2018-06-10T01:52:49.661Z,21.72
2018-06-10T01:55:18.116Z,21.71
2018-06-10T01:57:46.492Z,21.67
2018-06-10T02:00:14.909Z,21.66
2018-06-10T02:02:43.285Z,21.64
2018-06-10T02:05:11.601Z,21.61
2018-06-10T02:07:39.915Z,21.62
2018-06-10T02:10:08.301Z,21.60
2018-06-10T02:12:36.643Z,21.59
2018-06-10T02:15:05.052Z,21.51
2018-06-10T02:17:33.416Z,21.52
2018-06-10T02:20:01.794Z,21.50
2018-06-10T02:22:30.311Z,21.51
2018-06-10T02:24:58.633Z,21.52
2018-06-10T02:27:26.955Z,21.53
2018-06-10T02:29:55.349Z,21.53
2018-06-10T02:32:23.712Z,21.52
2018-06-10T02:34:52.106Z,21.54
2018-06-10T02:37:20.470Z,21.55
2018-06-10T02:39:48.812Z,21.56
2018-06-10T02:42:17.191Z,21.57
2018-06-10T02:44:45.580Z,21.55
2018-06-10T02:47:13.975Z,21.54
2018-06-10T02:49:42.407Z,21.54
2018-06-10T02:52:10.785Z,21.54
2018-06-10T02:54:39.144Z,21.55
2018-06-10T02:57:07.511Z,21.55
2018-06-10T02:59:35.909Z,21.55
2018-06-10T03:02:04.408Z,21.60
2018-06-10T03:04:32.702Z,21.61
2018-06-10T03:07:01.051Z,21.58
2018-06-10T03:09:29.400Z,21.52
2018-06-10T03:11:57.712Z,21.46
2018-06-10T03:14:26.100Z,21.39
2018-06-10T03:16:54.576Z,21.39
2018-06-10T03:19:22.939Z,21.44
2018-06-10T03:21:51.277Z,21.45
2018-06-10T03:24:19.629Z,21.46
2018-06-10T03:26:47.963Z,21.44
2018-06-10T03:29:16.405Z,21.39
2018-06-10T03:31:44.817Z,21.37
2018-06-10T03:34:13.171Z,21.35
2018-06-10T03:36:41.569Z,21.19
2018-06-10T03:39:09.884Z,21.14
2018-06-10T03:41:38.253Z,21.13
2018-06-10T03:44:06.696Z,21.12
2018-06-10T03:46:35.107Z,21.10
2018-06-10T03:49:03.509Z,21.08
2018-06-10T03:51:31.863Z,21.01
2018-06-10T03:54:00.229Z,21.01
2018-06-10T03:56:28.548Z,21.01
2018-06-10T03:58:56.914Z,21.03
2018-06-10T04:01:25.399Z,21.07
2018-06-10T04:03:53.739Z,21.11
2018-06-10T04:06:22.100Z,21.09
2018-06-10T04:08:50.451Z,21.17
2018-06-10T04:11:18.784Z,21.19
2018-06-10T04:13:47.148Z,21.22
2018-06-10T04:16:15.499Z,21.21
2018-06-10T04:18:43.808Z,21.25
2018-06-10T04:21:12.165Z,21.26
2018-06-10T04:23:41.339Z,21.22
2018-06-10T04:26:09.717Z,21.25
2018-06-10T04:28:38.123Z,21.28
2018-06-10T04:31:06.518Z,21.27
2018-06-10T04:33:34.934Z,21.30
2018-06-10T04:36:03.293Z,21.29
2018-06-10T04:38:31.603Z,21.38
2018-06-10T04:40:59.936Z,21.40
2018-06-10T04:43:28.344Z,21.41
2018-06-10T04:45:56.717Z,21.45
2018-06-10T04:48:25.045Z,21.45
2018-06-10T04:50:53.436Z,21.46
2018-06-10T04:53:21.794Z,21.46
2018-06-10T04:55:50.198Z,21.45
2018-06-10T04:58:18.597Z,21.47
2018-06-10T05:00:47.003Z,21.47
2018-06-10T05:03:15.358Z,21.48
2018-06-10T05:05:43.715Z,21.50
2018-06-10T05:08:12.057Z,21.51
2018-06-10T05:10:40.411Z,21.54
2018-06-10T05:13:08.788Z,21.52
2018-06-10T05:15:37.199Z,21.49
2018-06-10T05:18:05.605Z,21.49
2018-06-10T05:20:33.983Z,21.48
2018-06-10T05:23:02.304Z,21.53
2018-06-10T05:25:30.780Z,21.56
2018-06-10T05:27:59.121Z,21.59
2018-06-10T05:30:27.501Z,21.60
2018-06-10T05:32:55.936Z,21.61
2018-06-10T05:35:24.361Z,21.60
2018-06-10T05:37:52.740Z,21.59
2018-06-10T05:40:21.122Z,21.58
2018-06-10T05:42:49.522Z,21.56
2018-06-10T05:45:17.923Z,21.56
2018-06-10T05:47:46.388Z,21.57
2018-06-10T05:50:14.878Z,21.59
2018-06-10T05:52:43.272Z,21.62
2018-06-10T05:55:11.755Z,21.64
2018-06-10T05:57:40.119Z,21.67
2018-06-10T06:00:09.301Z,21.69
2018-06-10T06:02:37.822Z,21.71
2018-06-10T06:05:06.383Z,21.80
2018-06-10T06:07:35.512Z,21.83
2018-06-10T06:10:03.924Z,21.85
2018-06-10T06:12:32.285Z,21.89
2018-06-10T06:15:00.685Z,21.90
2018-06-10T06:17:29.051Z,21.96
2018-06-10T06:19:57.496Z,21.98
2018-06-10T06:22:25.884Z,21.94
2018-06-10T06:24:54.223Z,21.90
2018-06-10T06:27:22.631Z,21.89
2018-06-10T06:29:50.935Z,21.87
2018-06-10T06:32:19.253Z,21.87
2018-06-10T06:34:47.597Z,21.93
2018-06-10T06:37:15.930Z,21.97
2018-06-10T06:39:44.305Z,21.96
2018-06-10T06:42:12.726Z,21.93
2018-06-10T06:44:41.147Z,21.96
2018-06-10T06:47:09.518Z,21.96
2018-06-10T06:49:37.866Z,22.01
2018-06-10T06:52:06.429Z,22.05
2018-06-10T06:54:34.769Z,22.08
2018-06-10T06:57:03.158Z,22.12
2018-06-10T06:59:31.543Z,22.06
2018-06-10T07:01:59.931Z,22.00
2018-06-10T07:04:28.256Z,21.98
2018-06-10T07:06:56.645Z,22.03
2018-06-10T07:09:25.064Z,22.14
2018-06-10T07:11:53.509Z,22.25
2018-06-10T07:14:21.975Z,22.32
2018-06-10T07:16:50.310Z,22.40
2018-06-10T07:19:18.671Z,22.45
2018-06-10T07:21:47.001Z,22.50
2018-06-10T07:24:15.321Z,22.52
2018-06-10T07:26:43.703Z,22.48
2018-06-10T07:29:12.104Z,22.46
2018-06-10T07:31:40.415Z,22.46
2018-06-10T07:34:08.750Z,22.50
2018-06-10T07:36:37.091Z,22.48
2018-06-10T07:39:07.891Z,22.49
2018-06-10T07:41:36.530Z,22.50
2018-06-10T07:44:04.952Z,22.52
2018-06-10T07:46:33.323Z,22.52
2018-06-10T07:49:01.668Z,22.55
2018-06-10T07:51:30.089Z,22.54
2018-06-10T07:53:58.452Z,22.54
2018-06-10T07:56:26.811Z,22.54
2018-06-10T07:58:55.215Z,22.53
2018-06-10T08:01:23.536Z,22.51
2018-06-10T08:03:51.894Z,22.48
2018-06-10T08:06:20.210Z,22.43
2018-06-10T08:08:48.806Z,22.43
2018-06-10T08:11:17.135Z,22.42
2018-06-10T08:13:45.461Z,22.43
2018-06-10T08:16:13.955Z,22.43
2018-06-10T08:18:42.464Z,22.33
2018-06-10T08:21:10.815Z,22.29
2018-06-10T08:23:39.340Z,22.32
2018-06-10T08:26:07.703Z,22.33
2018-06-10T08:28:36.214Z,22.36
2018-06-10T08:31:04.605Z,22.43
2018-06-10T08:33:33.121Z,22.47
2018-06-10T08:36:01.490Z,22.46
2018-06-10T08:38:29.824Z,22.46
2018-06-10T08:40:58.232Z,22.53
2018-06-10T08:43:26.551Z,22.57
2018-06-10T08:45:54.952Z,22.59
2018-06-10T08:48:23.282Z,22.60
2018-06-10T08:50:51.591Z,22.61
2018-06-10T08:53:19.899Z,22.62
2018-06-10T08:55:48.275Z,22.66
2018-06-10T08:58:16.702Z,22.68
2018-06-10T09:00:45.180Z,22.74
2018-06-10T09:03:13.572Z,22.79
2018-06-10T09:05:42.014Z,22.83
2018-06-10T09:08:10.392Z,22.84
2018-06-10T09:10:38.770Z,22.84
2018-06-10T09:13:07.231Z,22.91
2018-06-10T09:15:35.642Z,22.95
2018-06-10T09:18:03.987Z,22.92
2018-06-10T09:20:32.320Z,22.92
2018-06-10T09:23:00.667Z,22.91
2018-06-10T09:25:29.034Z,22.89
2018-06-10T09:27:57.427Z,22.91
2018-06-10T09:30:25.779Z,22.87
2018-06-10T09:32:54.127Z,22.83
2018-06-10T09:35:22.534Z,22.84
2018-06-10T09:37:50.875Z,22.84
2018-06-10T09:40:19.319Z,22.88
2018-06-10T09:42:47.726Z,22.93
2018-06-10T09:45:16.074Z,22.96
2018-06-10T09:47:44.568Z,22.97
2018-06-10T09:50:12.915Z,22.93
2018-06-10T09:52:41.273Z,22.92
2018-06-10T09:55:09.621Z,22.92
2018-06-10T09:57:37.952Z,22.89
2018-06-10T10:00:06.401Z,22.97
2018-06-10T10:02:34.748Z,23.01
2018-06-10T10:05:03.087Z,23.05
2018-06-10T10:07:31.412Z,23.10
2018-06-10T10:10:00.344Z,23.06
2018-06-10T10:12:28.694Z,23.09
2018-06-10T10:14:57.003Z,23.11
2018-06-10T10:17:25.363Z,23.18
2018-06-10T10:19:53.671Z,23.23
2018-06-10T10:22:21.998Z,23.32
2018-06-10T10:24:50.315Z,23.47
2018-06-10T10:27:18.670Z,23.55
2018-06-10T10:29:47.025Z,23.58
2018-06-10T10:32:15.355Z,23.63
2018-06-10T10:34:44.112Z,23.69
2018-06-10T10:37:12.479Z,23.81
2018-06-10T10:39:40.902Z,23.88
2018-06-10T10:42:09.255Z,24.01
2018-06-10T10:44:37.621Z,24.04
2018-06-10T10:47:05.998Z,24.07
2018-06-10T10:49:34.324Z,24.07
2018-06-10T10:52:02.741Z,24.06
2018-06-10T10:54:31.197Z,24.01
2018-06-10T10:56:59.570Z,24.06
2018-06-10T10:59:28.811Z,24.07
2018-06-10T11:01:57.218Z,24.07
2018-06-10T11:04:25.600Z,24.06
2018-06-10T11:06:54.000Z,24.02
2018-06-10T11:09:22.386Z,24.00
2018-06-10T11:11:50.775Z,23.96
2018-06-10T11:14:19.105Z,23.95
2018-06-10T11:16:47.480Z,23.94
2018-06-10T11:19:15.818Z,24.02
2018-06-10T11:21:44.184Z,24.19
2018-06-10T11:24:13.206Z,24.47
2018-06-10T11:26:41.716Z,24.71
2018-06-10T11:29:10.045Z,24.95
2018-06-10T11:31:38.453Z,25.15
2018-06-10T11:34:06.765Z,25.35
2018-06-10T11:36:35.179Z,25.50
2018-06-10T11:39:03.816Z,25.64
2018-06-10T11:41:32.223Z,25.77
2018-06-10T11:44:00.628Z,25.85
2018-06-10T11:46:29.007Z,25.90
2018-06-10T11:48:57.387Z,25.97
2018-06-10T11:51:25.817Z,26.02
2018-06-10T11:53:54.200Z,26.13
2018-06-10T11:56:22.650Z,26.25
2018-06-10T11:58:51.041Z,26.37
2018-06-10T12:01:19.359Z,26.53
2018-06-10T12:03:48.467Z,26.62
2018-06-10T12:06:16.821Z,26.77
2018-06-10T12:08:45.299Z,26.89
2018-06-10T12:11:13.696Z,26.90
2018-06-10T12:13:42.132Z,26.96
2018-06-10T12:16:10.471Z,26.98
2018-06-10T12:18:38.802Z,27.08
2018-06-10T12:21:07.232Z,27.11
2018-06-10T12:23:35.645Z,27.18
2018-06-10T12:26:04.178Z,27.27
2018-06-10T12:28:32.572Z,27.34
2018-06-10T12:31:00.912Z,27.40
2018-06-10T12:33:29.244Z,27.48
2018-06-10T12:35:57.621Z,27.56
2018-06-10T12:38:26.056Z,27.66
2018-06-10T12:40:54.622Z,27.84
2018-06-10T12:43:23.000Z,27.96
2018-06-10T12:45:51.410Z,28.13
2018-06-10T12:48:19.843Z,28.25
2018-06-10T12:50:48.218Z,28.34
2018-06-10T12:53:16.675Z,28.35
2018-06-10T12:55:45.101Z,28.40
2018-06-10T12:58:13.461Z,28.45
2018-06-10T13:00:41.852Z,28.52
2018-06-10T13:03:10.167Z,28.57
2018-06-10T13:05:38.528Z,28.60
2018-06-10T13:08:07.004Z,28.68
2018-06-10T13:10:35.403Z,28.80
2018-06-10T13:13:03.891Z,28.83
2018-06-10T13:15:32.235Z,28.82
2018-06-10T13:18:00.715Z,28.89
2018-06-10T13:20:29.188Z,28.96
2018-06-10T13:22:57.583Z,29.05
2018-06-10T13:25:25.961Z,29.05
2018-06-10T13:27:54.503Z,29.02
2018-06-10T13:30:22.905Z,28.84
2018-06-10T13:32:51.333Z,28.63
2018-06-10T13:35:20.288Z,28.62
2018-06-10T13:37:48.698Z,28.65
2018-06-10T13:40:17.195Z,28.68
2018-06-10T13:42:45.633Z,28.76
2018-06-10T13:45:14.005Z,28.76
2018-06-10T13:47:42.459Z,28.67
2018-06-10T13:50:10.813Z,28.58
2018-06-10T13:52:39.230Z,28.63
2018-06-10T13:55:07.684Z,28.67
2018-06-10T13:57:36.185Z,28.73
2018-06-10T14:00:04.865Z,28.90
2018-06-10T14:02:33.208Z,28.91
2018-06-10T14:05:01.563Z,28.92
2018-06-10T14:07:29.972Z,28.97
2018-06-10T14:09:58.390Z,28.79
2018-06-10T14:12:26.794Z,28.69
2018-06-10T14:14:55.193Z,28.55
2018-06-10T14:17:23.542Z,28.43
2018-06-10T14:19:51.919Z,28.31
2018-06-10T14:22:20.296Z,28.35
2018-06-10T14:24:48.873Z,28.47
2018-06-10T14:27:17.308Z,28.57
2018-06-10T14:29:45.690Z,28.61
2018-06-10T14:32:14.034Z,28.69
2018-06-10T14:34:42.443Z,28.78
2018-06-10T14:37:10.866Z,28.84
2018-06-10T14:39:39.295Z,28.79
2018-06-10T14:42:07.651Z,28.79
2018-06-10T14:44:36.047Z,28.75
2018-06-10T14:47:04.381Z,28.78
2018-06-10T14:49:32.795Z,28.83
2018-06-10T14:52:01.183Z,28.70
2018-06-10T14:54:29.527Z,28.57
2018-06-10T14:56:57.971Z,28.43
2018-06-10T14:59:26.361Z,28.34
2018-06-10T15:01:54.791Z,28.25
2018-06-10T15:04:23.121Z,28.13
2018-06-10T15:06:51.558Z,28.06
2018-06-10T15:09:19.930Z,28.04
2018-06-10T15:11:49.191Z,28.03
2018-06-10T15:14:17.602Z,28.03
2018-06-10T15:16:45.983Z,27.96
2018-06-10T15:19:14.335Z,27.88
2018-06-10T15:21:42.796Z,27.76
2018-06-10T15:24:11.178Z,27.70
2018-06-10T15:26:40.104Z,27.62
2018-06-10T15:29:08.442Z,27.54
2018-06-10T15:31:36.824Z,27.46
2018-06-10T15:34:05.239Z,27.38
2018-06-10T15:36:33.727Z,27.29
2018-06-10T15:39:02.127Z,27.21
2018-06-10T15:41:30.491Z,27.16
2018-06-10T15:43:58.942Z,27.11
2018-06-10T15:46:27.362Z,27.13
2018-06-10T15:48:56.792Z,27.17
2018-06-10T15:51:25.124Z,27.18
2018-06-10T15:53:54.494Z,27.16
2018-06-10T15:56:23.149Z,27.21
2018-06-10T15:58:51.654Z,27.31
2018-06-10T16:01:20.036Z,27.40
2018-06-10T16:03:48.412Z,27.46
2018-06-10T16:06:16.816Z,27.49
2018-06-10T16:08:45.217Z,27.64
2018-06-10T16:11:13.626Z,27.65
2018-06-10T16:13:42.038Z,27.69
2018-06-10T16:16:10.452Z,28.25
2018-06-10T16:18:38.833Z,28.82
2018-06-10T16:21:07.331Z,29.33
2018-06-10T16:23:35.710Z,29.91
2018-06-10T16:26:04.115Z,30.40
2018-06-10T16:28:32.491Z,30.69
2018-06-10T16:31:00.949Z,31.00
2018-06-10T16:33:29.575Z,31.30
2018-06-10T16:35:58.114Z,31.51
2018-06-10T16:38:26.506Z,31.58
2018-06-10T16:40:54.924Z,31.59
2018-06-10T16:43:23.355Z,31.55
2018-06-10T16:45:51.702Z,31.52
2018-06-10T16:48:20.143Z,31.40
2018-06-10T16:50:48.615Z,31.30
2018-06-10T16:53:16.979Z,31.02
2018-06-10T16:55:45.303Z,30.69
2018-06-10T16:58:13.697Z,30.39
2018-06-10T17:00:42.069Z,30.24
2018-06-10T17:03:10.392Z,30.27
2018-06-10T17:05:38.771Z,30.18
2018-06-10T17:08:07.172Z,30.25
2018-06-10T17:10:35.574Z,30.28
2018-06-10T17:13:04.027Z,30.40
2018-06-10T17:15:32.427Z,30.32
2018-06-10T17:18:00.759Z,30.25
2018-06-10T17:20:29.153Z,30.18
2018-06-10T17:22:57.457Z,30.11
2018-06-10T17:25:25.931Z,30.03
2018-06-10T17:27:54.295Z,29.96
2018-06-10T17:30:22.683Z,29.81
2018-06-10T17:32:51.187Z,29.72
2018-06-10T17:35:19.618Z,29.62
2018-06-10T17:37:48.647Z,29.59
2018-06-10T17:40:17.024Z,29.41
2018-06-10T17:42:45.474Z,29.30
2018-06-10T17:45:13.876Z,29.22
2018-06-10T17:47:42.260Z,29.14
2018-06-10T17:50:10.617Z,29.00
2018-06-10T17:52:39.029Z,28.83
2018-06-10T17:55:08.198Z,28.63
2018-06-10T17:57:36.568Z,28.37
2018-06-10T18:00:04.947Z,28.14
2018-06-10T18:02:33.536Z,27.95
2018-06-10T18:05:01.944Z,27.85
2018-06-10T18:07:30.432Z,27.98
2018-06-10T18:09:58.868Z,28.09
2018-06-10T18:12:27.337Z,27.91
2018-06-10T18:14:55.807Z,27.69
2018-06-10T18:17:24.124Z,27.47
2018-06-10T18:19:52.486Z,27.29
2018-06-10T18:22:20.879Z,27.09
2018-06-10T18:24:49.315Z,26.99
2018-06-10T18:27:17.622Z,26.85
2018-06-10T18:29:45.989Z,26.73
2018-06-10T18:32:14.289Z,26.63
2018-06-10T18:34:42.634Z,26.51
2018-06-10T18:37:11.003Z,26.43
2018-06-10T18:39:39.471Z,26.35
2018-06-10T18:42:07.947Z,26.29
2018-06-10T18:44:36.270Z,26.24
2018-06-10T18:47:04.617Z,26.17
2018-06-10T18:49:33.090Z,26.11
2018-06-10T18:52:02.204Z,26.03
2018-06-10T18:54:30.683Z,25.91
2018-06-10T18:56:59.063Z,25.88
2018-06-10T18:59:27.507Z,25.84
2018-06-10T19:01:55.966Z,25.78
2018-06-10T19:04:24.344Z,25.71
2018-06-10T19:06:53.895Z,25.67
2018-06-10T19:09:22.347Z,25.62
2018-06-10T19:11:50.795Z,25.58
2018-06-10T19:14:19.190Z,25.53
2018-06-10T19:16:47.669Z,25.48
2018-06-10T19:19:16.027Z,25.45
2018-06-10T19:21:44.370Z,25.40
2018-06-10T19:24:12.836Z,25.35
2018-06-10T19:26:41.184Z,25.29
2018-06-10T19:29:09.607Z,25.22
2018-06-10T19:31:38.002Z,25.17
2018-06-10T19:34:06.518Z,25.13
2018-06-10T19:36:34.903Z,25.07
2018-06-10T19:39:03.738Z,25.03
2018-06-10T19:41:32.344Z,24.99
2018-06-10T19:44:00.759Z,24.95
2018-06-10T19:46:29.186Z,24.92
2018-06-10T19:48:57.563Z,24.88
2018-06-10T19:51:25.987Z,24.85
2018-06-10T19:53:55.199Z,24.81
2018-06-10T19:56:23.875Z,24.77
2018-06-10T19:58:52.463Z,24.73
2018-06-10T20:01:20.905Z,24.68
2018-06-10T20:03:50.009Z,24.64
2018-06-10T20:06:18.987Z,24.59
2018-06-10T20:08:47.443Z,24.54
2018-06-10T20:11:15.786Z,24.51
2018-06-10T20:13:44.166Z,24.47
2018-06-10T20:16:12.542Z,24.47
2018-06-10T20:18:42.144Z,24.45
2018-06-10T20:21:10.640Z,24.43
2018-06-10T20:23:39.111Z,24.41
2018-06-10T20:26:07.527Z,24.39
2018-06-10T20:28:35.838Z,24.37
2018-06-10T20:31:04.222Z,24.34
2018-06-10T20:33:32.662Z,24.29
2018-06-10T20:36:01.015Z,24.25
2018-06-10T20:38:29.405Z,24.22
2018-06-10T20:40:57.750Z,24.19
2018-06-10T20:43:26.179Z,24.14
2018-06-10T20:45:54.580Z,24.10
2018-06-10T20:48:22.992Z,24.06
2018-06-10T20:50:51.353Z,24.04
2018-06-10T20:53:19.659Z,24.02
2018-06-10T20:55:48.003Z,23.98
2018-06-10T20:58:16.315Z,23.97
2018-06-10T21:00:44.774Z,23.93
2018-06-10T21:03:13.136Z,23.92
2018-06-10T21:05:41.532Z,23.90
2018-06-10T21:08:09.914Z,23.89
2018-06-10T21:10:38.253Z,23.85
2018-06-10T21:13:06.688Z,23.83
2018-06-10T21:15:35.357Z,23.80
2018-06-10T21:18:03.728Z,23.80
2018-06-10T21:20:32.068Z,23.84
2018-06-10T21:23:00.402Z,23.85
2018-06-10T21:25:28.760Z,23.87
2018-06-10T21:27:57.191Z,23.81
2018-06-10T21:30:25.611Z,23.78
2018-06-10T21:32:53.936Z,23.76
2018-06-10T21:35:22.352Z,23.76
2018-06-10T21:37:50.695Z,23.72
2018-06-10T21:40:19.049Z,23.68
2018-06-10T21:42:47.435Z,23.64
2018-06-10T21:45:15.919Z,23.65
2018-06-10T21:47:44.349Z,23.65
2018-06-10T21:50:12.684Z,23.63
2018-06-10T21:52:41.053Z,23.61
2018-06-10T21:55:10.139Z,23.60
2018-06-10T21:57:38.522Z,23.59
2018-06-10T22:00:10.967Z,23.52
2018-06-10T22:02:39.296Z,23.53
2018-06-10T22:05:07.656Z,23.50
2018-06-10T22:07:36.135Z,23.49
2018-06-10T22:10:04.555Z,23.45
2018-06-10T22:12:32.911Z,23.44
2018-06-10T22:15:01.225Z,23.37
2018-06-10T22:17:29.563Z,23.33
2018-06-10T22:19:57.985Z,23.34
2018-06-10T22:22:26.363Z,23.34
2018-06-10T22:24:54.819Z,23.34
2018-06-10T22:27:23.207Z,23.32
2018-06-10T22:29:51.534Z,23.31
2018-06-10T22:32:19.853Z,23.32
2018-06-10T22:34:48.250Z,23.29
2018-06-10T22:37:16.592Z,23.26
2018-06-10T22:39:44.961Z,23.24
2018-06-10T22:42:13.333Z,23.22
2018-06-10T22:44:41.667Z,23.20
2018-06-10T22:47:10.031Z,23.17
2018-06-10T22:49:38.422Z,23.15
2018-06-10T22:52:06.826Z,23.12
2018-06-10T22:54:44.815Z,23.11
2018-06-10T22:57:13.186Z,23.07
2018-06-10T22:59:41.562Z,23.02
2018-06-10T23:02:10.595Z,23.00
2018-06-10T23:04:38.945Z,22.97
2018-06-10T23:07:07.286Z,22.97
2018-06-10T23:09:35.642Z,22.96
2018-06-10T23:12:04.097Z,22.94
2018-06-10T23:14:32.460Z,22.96
2018-06-10T23:17:00.815Z,22.94
2018-06-10T23:19:29.145Z,22.92
2018-06-10T23:21:57.483Z,22.89
2018-06-10T23:24:25.888Z,22.88
2018-06-10T23:26:54.288Z,22.85
2018-06-10T23:29:22.656Z,22.80
2018-06-10T23:31:51.004Z,22.80
2018-06-10T23:34:19.353Z,22.79
2018-06-10T23:36:47.702Z,22.78
2018-06-10T23:39:16.104Z,22.74
2018-06-10T23:41:44.482Z,22.74
2018-06-10T23:44:12.856Z,22.72
2018-06-10T23:46:41.184Z,22.67
2018-06-10T23:49:09.571Z,22.66
2018-06-10T23:51:37.898Z,22.62
2018-06-10T23:54:06.261Z,22.60
2018-06-10T23:56:35.197Z,22.58
2018-06-10T23:59:03.582Z,22.56
